sensor_id;sensor_type;location;lat;lon;timestamp;P1;durP1;ratioP1;P2;durP2;ratioP2
14118;SDS011;7138;49.246;9.100;2023-07-09T00:00:45;6.47;;;3.50;;
14118;SDS011;7138;49.246;9.100;2023-07-09T00:03:14;5.93;;;3.05;;
14118;SDS011;7138;49.246;9.100;2023-07-09T00:05:40;6.43;;;3.60;;
14118;SDS011;7138;49.246;9.100;2023-07-09T00:08:08;9.32;;;3.30;;
14118;SDS011;7138;49.246;9.100;2023-07-09T00:10:51;7.63;;;3.30;;
14118;SDS011;7138;49.246;9.100;2023-07-09T00:13:17;8.23;;;3.83;;
14118;SDS011;7138;49.246;9.100;2023-07-09T00:15:43;8.73;;;3.90;;
14118;SDS011;7138;49.246;9.100;2023-07-09T00:18:10;7.05;;;3.70;;
14118;SDS011;7138;49.246;9.100;2023-07-09T00:20:36;6.85;;;3.60;;
14118;SDS011;7138;49.246;9.100;2023-07-09T00:23:02;6.88;;;3.80;;
14118;SDS011;7138;49.246;9.100;2023-07-09T00:25:29;6.55;;;3.60;;
14118;SDS011;7138;49.246;9.100;2023-07-09T00:27:56;8.60;;;4.13;;
14118;SDS011;7138;49.246;9.100;2023-07-09T00:30:22;7.30;;;3.50;;
14118;SDS011;7138;49.246;9.100;2023-07-09T00:32:49;7.70;;;3.33;;
14118;SDS011;7138;49.246;9.100;2023-07-09T00:35:17;9.02;;;3.80;;
14118;SDS011;7138;49.246;9.100;2023-07-09T00:37:44;6.50;;;3.30;;
14118;SDS011;7138;49.246;9.100;2023-07-09T00:40:15;7.32;;;3.50;;
14118;SDS011;7138;49.246;9.100;2023-07-09T00:42:44;8.32;;;3.53;;
14118;SDS011;7138;49.246;9.100;2023-07-09T00:45:16;9.32;;;3.88;;
14118;SDS011;7138;49.246;9.100;2023-07-09T00:47:48;10.50;;;3.70;;
14118;SDS011;7138;49.246;9.100;2023-07-09T00:50:24;6.97;;;3.60;;
14118;SDS011;7138;49.246;9.100;2023-07-09T00:52:59;7.83;;;3.53;;
14118;SDS011;7138;49.246;9.100;2023-07-09T00:55:37;6.50;;;3.33;;
14118;SDS011;7138;49.246;9.100;2023-07-09T00:58:09;9.13;;;3.92;;
14118;SDS011;7138;49.246;9.100;2023-07-09T01:00:41;7.90;;;3.58;;
14118;SDS011;7138;49.246;9.100;2023-07-09T01:03:21;8.27;;;3.47;;
14118;SDS011;7138;49.246;9.100;2023-07-09T01:05:56;7.57;;;3.13;;
14118;SDS011;7138;49.246;9.100;2023-07-09T01:08:23;6.65;;;3.50;;
14118;SDS011;7138;49.246;9.100;2023-07-09T01:10:52;10.32;;;3.30;;
14118;SDS011;7138;49.246;9.100;2023-07-09T01:13:18;9.40;;;3.97;;
14118;SDS011;7138;49.246;9.100;2023-07-09T01:15:44;7.70;;;3.50;;
14118;SDS011;7138;49.246;9.100;2023-07-09T01:18:12;6.80;;;3.35;;
14118;SDS011;7138;49.246;9.100;2023-07-09T01:20:39;5.72;;;3.50;;
14118;SDS011;7138;49.246;9.100;2023-07-09T01:23:08;6.03;;;3.35;;
14118;SDS011;7138;49.246;9.100;2023-07-09T01:25:35;7.38;;;3.20;;
14118;SDS011;7138;49.246;9.100;2023-07-09T01:28:08;6.40;;;3.22;;
14118;SDS011;7138;49.246;9.100;2023-07-09T01:30:35;6.47;;;3.42;;
14118;SDS011;7138;49.246;9.100;2023-07-09T01:33:05;6.60;;;3.22;;
14118;SDS011;7138;49.246;9.100;2023-07-09T01:35:33;7.55;;;3.50;;
14118;SDS011;7138;49.246;9.100;2023-07-09T01:38:02;7.38;;;3.53;;
14118;SDS011;7138;49.246;9.100;2023-07-09T01:40:33;5.75;;;3.55;;
14118;SDS011;7138;49.246;9.100;2023-07-09T01:43:00;8.25;;;3.90;;
14118;SDS011;7138;49.246;9.100;2023-07-09T01:45:31;9.63;;;3.35;;
14118;SDS011;7138;49.246;9.100;2023-07-09T01:47:59;6.75;;;3.15;;
14118;SDS011;7138;49.246;9.100;2023-07-09T01:50:26;8.45;;;3.85;;
14118;SDS011;7138;49.246;9.100;2023-07-09T01:52:52;7.53;;;3.40;;
14118;SDS011;7138;49.246;9.100;2023-07-09T01:55:20;8.88;;;4.18;;
14118;SDS011;7138;49.246;9.100;2023-07-09T01:57:47;6.18;;;3.30;;
14118;SDS011;7138;49.246;9.100;2023-07-09T02:00:16;7.80;;;3.38;;
14118;SDS011;7138;49.246;9.100;2023-07-09T02:02:43;7.53;;;3.72;;
14118;SDS011;7138;49.246;9.100;2023-07-09T02:05:11;6.85;;;3.78;;
14118;SDS011;7138;49.246;9.100;2023-07-09T02:07:40;7.17;;;3.50;;
14118;SDS011;7138;49.246;9.100;2023-07-09T02:10:06;8.02;;;3.55;;
14118;SDS011;7138;49.246;9.100;2023-07-09T02:12:33;7.90;;;3.85;;
14118;SDS011;7138;49.246;9.100;2023-07-09T02:15:04;7.20;;;3.85;;
14118;SDS011;7138;49.246;9.100;2023-07-09T02:17:31;7.47;;;3.75;;
14118;SDS011;7138;49.246;9.100;2023-07-09T02:19:57;7.70;;;3.38;;
14118;SDS011;7138;49.246;9.100;2023-07-09T02:22:23;6.75;;;3.38;;
14118;SDS011;7138;49.246;9.100;2023-07-09T02:24:48;6.97;;;4.00;;
14118;SDS011;7138;49.246;9.100;2023-07-09T02:27:15;8.35;;;3.50;;
14118;SDS011;7138;49.246;9.100;2023-07-09T02:29:42;8.18;;;4.25;;
14118;SDS011;7138;49.246;9.100;2023-07-09T02:32:10;7.60;;;3.28;;
14118;SDS011;7138;49.246;9.100;2023-07-09T02:34:42;8.57;;;3.40;;
14118;SDS011;7138;49.246;9.100;2023-07-09T02:37:08;6.68;;;4.07;;
14118;SDS011;7138;49.246;9.100;2023-07-09T02:39:34;8.25;;;3.67;;
14118;SDS011;7138;49.246;9.100;2023-07-09T02:42:00;8.30;;;3.50;;
14118;SDS011;7138;49.246;9.100;2023-07-09T02:44:25;7.28;;;3.72;;
14118;SDS011;7138;49.246;9.100;2023-07-09T02:46:51;5.20;;;3.17;;
14118;SDS011;7138;49.246;9.100;2023-07-09T02:49:18;7.45;;;3.40;;
14118;SDS011;7138;49.246;9.100;2023-07-09T02:51:44;7.28;;;3.80;;
14118;SDS011;7138;49.246;9.100;2023-07-09T02:54:10;6.53;;;3.97;;
14118;SDS011;7138;49.246;9.100;2023-07-09T02:56:36;6.40;;;3.55;;
14118;SDS011;7138;49.246;9.100;2023-07-09T02:59:02;7.00;;;3.75;;
14118;SDS011;7138;49.246;9.100;2023-07-09T03:01:30;8.18;;;3.40;;
14118;SDS011;7138;49.246;9.100;2023-07-09T03:03:59;7.43;;;3.88;;
14118;SDS011;7138;49.246;9.100;2023-07-09T03:06:28;7.75;;;3.58;;
14118;SDS011;7138;49.246;9.100;2023-07-09T03:08:57;7.10;;;3.95;;
14118;SDS011;7138;49.246;9.100;2023-07-09T03:11:24;7.82;;;3.65;;
14118;SDS011;7138;49.246;9.100;2023-07-09T03:13:50;5.93;;;3.58;;
14118;SDS011;7138;49.246;9.100;2023-07-09T03:16:17;7.03;;;3.60;;
14118;SDS011;7138;49.246;9.100;2023-07-09T03:18:44;6.90;;;3.67;;
14118;SDS011;7138;49.246;9.100;2023-07-09T03:21:10;8.82;;;3.88;;
14118;SDS011;7138;49.246;9.100;2023-07-09T03:23:38;6.82;;;3.67;;
14118;SDS011;7138;49.246;9.100;2023-07-09T03:26:04;6.65;;;3.60;;
14118;SDS011;7138;49.246;9.100;2023-07-09T03:28:30;7.70;;;3.53;;
14118;SDS011;7138;49.246;9.100;2023-07-09T03:30:56;7.63;;;3.85;;
14118;SDS011;7138;49.246;9.100;2023-07-09T03:33:23;6.40;;;3.55;;
14118;SDS011;7138;49.246;9.100;2023-07-09T03:35:49;6.72;;;3.58;;
14118;SDS011;7138;49.246;9.100;2023-07-09T03:38:15;8.52;;;3.95;;
14118;SDS011;7138;49.246;9.100;2023-07-09T03:40:43;7.78;;;3.83;;
14118;SDS011;7138;49.246;9.100;2023-07-09T03:43:09;6.82;;;3.75;;
14118;SDS011;7138;49.246;9.100;2023-07-09T03:45:36;8.15;;;3.85;;
14118;SDS011;7138;49.246;9.100;2023-07-09T03:48:03;6.88;;;3.88;;
14118;SDS011;7138;49.246;9.100;2023-07-09T03:50:30;6.25;;;3.65;;
14118;SDS011;7138;49.246;9.100;2023-07-09T03:52:57;8.48;;;3.63;;
14118;SDS011;7138;49.246;9.100;2023-07-09T03:55:23;7.05;;;3.63;;
14118;SDS011;7138;49.246;9.100;2023-07-09T03:57:52;7.95;;;3.63;;
14118;SDS011;7138;49.246;9.100;2023-07-09T04:00:18;8.07;;;4.03;;
14118;SDS011;7138;49.246;9.100;2023-07-09T04:02:44;7.88;;;3.97;;
14118;SDS011;7138;49.246;9.100;2023-07-09T04:05:10;12.65;;;4.38;;
14118;SDS011;7138;49.246;9.100;2023-07-09T04:07:36;7.28;;;3.30;;
14118;SDS011;7138;49.246;9.100;2023-07-09T04:10:03;8.32;;;3.63;;
14118;SDS011;7138;49.246;9.100;2023-07-09T04:12:30;10.55;;;3.92;;
14118;SDS011;7138;49.246;9.100;2023-07-09T04:14:58;7.57;;;3.58;;
14118;SDS011;7138;49.246;9.100;2023-07-09T04:17:25;8.70;;;3.83;;
14118;SDS011;7138;49.246;9.100;2023-07-09T04:19:51;7.25;;;3.65;;
14118;SDS011;7138;49.246;9.100;2023-07-09T04:22:17;9.02;;;4.07;;
14118;SDS011;7138;49.246;9.100;2023-07-09T04:24:43;8.30;;;4.07;;
14118;SDS011;7138;49.246;9.100;2023-07-09T04:27:09;8.20;;;3.75;;
14118;SDS011;7138;49.246;9.100;2023-07-09T04:29:35;6.75;;;3.58;;
14118;SDS011;7138;49.246;9.100;2023-07-09T04:32:05;8.25;;;4.22;;
14118;SDS011;7138;49.246;9.100;2023-07-09T04:34:32;6.57;;;3.38;;
14118;SDS011;7138;49.246;9.100;2023-07-09T04:36:58;6.30;;;3.70;;
14118;SDS011;7138;49.246;9.100;2023-07-09T04:39:24;7.93;;;3.67;;
14118;SDS011;7138;49.246;9.100;2023-07-09T04:41:50;10.98;;;3.80;;
14118;SDS011;7138;49.246;9.100;2023-07-09T04:44:15;8.38;;;3.72;;
14118;SDS011;7138;49.246;9.100;2023-07-09T04:46:41;6.85;;;3.55;;
14118;SDS011;7138;49.246;9.100;2023-07-09T04:49:08;7.13;;;3.28;;
14118;SDS011;7138;49.246;9.100;2023-07-09T04:51:37;9.32;;;4.00;;
14118;SDS011;7138;49.246;9.100;2023-07-09T04:54:03;7.80;;;3.70;;
14118;SDS011;7138;49.246;9.100;2023-07-09T04:56:29;8.18;;;3.75;;
14118;SDS011;7138;49.246;9.100;2023-07-09T04:58:55;8.85;;;3.60;;
14118;SDS011;7138;49.246;9.100;2023-07-09T05:01:21;7.40;;;4.93;;
14118;SDS011;7138;49.246;9.100;2023-07-09T05:03:48;7.50;;;4.40;;
14118;SDS011;7138;49.246;9.100;2023-07-09T05:06:15;8.60;;;3.58;;
14118;SDS011;7138;49.246;9.100;2023-07-09T05:08:41;7.18;;;4.05;;
14118;SDS011;7138;49.246;9.100;2023-07-09T05:11:08;7.70;;;3.90;;
14118;SDS011;7138;49.246;9.100;2023-07-09T05:13:35;5.93;;;3.67;;
14118;SDS011;7138;49.246;9.100;2023-07-09T05:16:01;6.65;;;3.33;;
14118;SDS011;7138;49.246;9.100;2023-07-09T05:18:27;9.20;;;3.90;;
14118;SDS011;7138;49.246;9.100;2023-07-09T05:20:54;7.22;;;3.55;;
14118;SDS011;7138;49.246;9.100;2023-07-09T05:23:23;7.28;;;3.80;;
14118;SDS011;7138;49.246;9.100;2023-07-09T05:25:54;7.82;;;3.53;;
14118;SDS011;7138;49.246;9.100;2023-07-09T05:28:21;8.07;;;3.40;;
14118;SDS011;7138;49.246;9.100;2023-07-09T05:30:47;7.53;;;3.50;;
14118;SDS011;7138;49.246;9.100;2023-07-09T05:33:13;8.88;;;4.00;;
14118;SDS011;7138;49.246;9.100;2023-07-09T05:35:39;8.27;;;4.25;;
14118;SDS011;7138;49.246;9.100;2023-07-09T05:38:07;5.93;;;3.60;;
14118;SDS011;7138;49.246;9.100;2023-07-09T05:40:34;10.98;;;3.78;;
14118;SDS011;7138;49.246;9.100;2023-07-09T05:43:00;6.10;;;3.53;;
14118;SDS011;7138;49.246;9.100;2023-07-09T05:45:25;7.45;;;3.65;;
14118;SDS011;7138;49.246;9.100;2023-07-09T05:47:51;7.25;;;3.60;;
14118;SDS011;7138;49.246;9.100;2023-07-09T05:50:17;7.20;;;3.63;;
14118;SDS011;7138;49.246;9.100;2023-07-09T05:52:43;8.40;;;4.15;;
14118;SDS011;7138;49.246;9.100;2023-07-09T05:55:09;7.05;;;3.13;;
14118;SDS011;7138;49.246;9.100;2023-07-09T05:57:36;8.85;;;3.67;;
14118;SDS011;7138;49.246;9.100;2023-07-09T06:00:03;6.90;;;3.42;;
14118;SDS011;7138;49.246;9.100;2023-07-09T06:02:32;5.93;;;3.50;;
14118;SDS011;7138;49.246;9.100;2023-07-09T06:04:58;7.88;;;3.60;;
14118;SDS011;7138;49.246;9.100;2023-07-09T06:07:23;6.07;;;3.80;;
14118;SDS011;7138;49.246;9.100;2023-07-09T06:09:49;10.00;;;3.72;;
14118;SDS011;7138;49.246;9.100;2023-07-09T06:12:15;8.88;;;4.00;;
14118;SDS011;7138;49.246;9.100;2023-07-09T06:14:43;8.18;;;3.67;;
14118;SDS011;7138;49.246;9.100;2023-07-09T06:17:09;6.30;;;3.53;;
14118;SDS011;7138;49.246;9.100;2023-07-09T06:19:35;6.25;;;3.35;;
14118;SDS011;7138;49.246;9.100;2023-07-09T06:22:01;8.90;;;3.70;;
14118;SDS011;7138;49.246;9.100;2023-07-09T06:24:27;5.28;;;3.10;;
14118;SDS011;7138;49.246;9.100;2023-07-09T06:26:53;6.57;;;3.65;;
14118;SDS011;7138;49.246;9.100;2023-07-09T06:29:18;6.40;;;3.40;;
14118;SDS011;7138;49.246;9.100;2023-07-09T06:31:46;6.55;;;3.20;;
14118;SDS011;7138;49.246;9.100;2023-07-09T06:34:12;7.38;;;3.75;;
14118;SDS011;7138;49.246;9.100;2023-07-09T06:36:38;8.57;;;3.63;;
14118;SDS011;7138;49.246;9.100;2023-07-09T06:39:04;6.85;;;3.47;;
14118;SDS011;7138;49.246;9.100;2023-07-09T06:41:30;5.28;;;3.20;;
14118;SDS011;7138;49.246;9.100;2023-07-09T06:43:57;7.30;;;3.85;;
14118;SDS011;7138;49.246;9.100;2023-07-09T06:46:23;8.73;;;3.28;;
14118;SDS011;7138;49.246;9.100;2023-07-09T06:48:51;5.18;;;3.13;;
14118;SDS011;7138;49.246;9.100;2023-07-09T06:51:17;6.25;;;3.22;;
14118;SDS011;7138;49.246;9.100;2023-07-09T06:53:42;4.80;;;3.05;;
14118;SDS011;7138;49.246;9.100;2023-07-09T06:56:12;5.45;;;3.30;;
14118;SDS011;7138;49.246;9.100;2023-07-09T06:58:38;7.15;;;3.63;;
14118;SDS011;7138;49.246;9.100;2023-07-09T07:01:04;6.90;;;3.10;;
14118;SDS011;7138;49.246;9.100;2023-07-09T07:03:31;5.68;;;3.40;;
14118;SDS011;7138;49.246;9.100;2023-07-09T07:05:59;5.07;;;3.15;;
14118;SDS011;7138;49.246;9.100;2023-07-09T07:08:25;6.57;;;3.22;;
14118;SDS011;7138;49.246;9.100;2023-07-09T07:10:54;5.05;;;3.17;;
14118;SDS011;7138;49.246;9.100;2023-07-09T07:13:27;5.45;;;3.17;;
14118;SDS011;7138;49.246;9.100;2023-07-09T07:15:54;8.32;;;3.83;;
14118;SDS011;7138;49.246;9.100;2023-07-09T07:18:20;5.10;;;3.17;;
14118;SDS011;7138;49.246;9.100;2023-07-09T07:20:46;6.72;;;3.17;;
14118;SDS011;7138;49.246;9.100;2023-07-09T07:23:13;6.10;;;3.38;;
14118;SDS011;7138;49.246;9.100;2023-07-09T07:25:39;5.68;;;2.95;;
14118;SDS011;7138;49.246;9.100;2023-07-09T07:28:06;7.07;;;3.00;;
14118;SDS011;7138;49.246;9.100;2023-07-09T07:30:32;6.30;;;3.35;;
14118;SDS011;7138;49.246;9.100;2023-07-09T07:32:57;5.53;;;3.20;;
14118;SDS011;7138;49.246;9.100;2023-07-09T07:35:24;6.43;;;3.17;;
14118;SDS011;7138;49.246;9.100;2023-07-09T07:37:50;6.90;;;3.88;;
14118;SDS011;7138;49.246;9.100;2023-07-09T07:40:17;5.93;;;3.90;;
14118;SDS011;7138;49.246;9.100;2023-07-09T07:42:43;6.53;;;3.25;;
14118;SDS011;7138;49.246;9.100;2023-07-09T07:45:09;7.22;;;3.20;;
14118;SDS011;7138;49.246;9.100;2023-07-09T07:47:35;5.90;;;3.22;;
14118;SDS011;7138;49.246;9.100;2023-07-09T07:50:01;5.05;;;3.30;;
14118;SDS011;7138;49.246;9.100;2023-07-09T07:52:27;8.63;;;3.75;;
14118;SDS011;7138;49.246;9.100;2023-07-09T07:54:54;5.53;;;3.10;;
14118;SDS011;7138;49.246;9.100;2023-07-09T07:57:21;9.18;;;3.10;;
14118;SDS011;7138;49.246;9.100;2023-07-09T08:02:15;6.35;;;3.33;;
14118;SDS011;7138;49.246;9.100;2023-07-09T08:04:41;6.50;;;3.50;;
14118;SDS011;7138;49.246;9.100;2023-07-09T08:07:07;5.78;;;3.42;;
14118;SDS011;7138;49.246;9.100;2023-07-09T08:09:34;6.25;;;3.17;;
14118;SDS011;7138;49.246;9.100;2023-07-09T08:12:00;7.20;;;3.45;;
14118;SDS011;7138;49.246;9.100;2023-07-09T08:14:31;8.18;;;3.25;;
14118;SDS011;7138;49.246;9.100;2023-07-09T08:16:57;5.80;;;2.63;;
14118;SDS011;7138;49.246;9.100;2023-07-09T08:19:23;6.00;;;3.47;;
14118;SDS011;7138;49.246;9.100;2023-07-09T08:21:49;6.63;;;3.40;;
14118;SDS011;7138;49.246;9.100;2023-07-09T08:24:14;6.57;;;3.22;;
14118;SDS011;7138;49.246;9.100;2023-07-09T08:26:40;6.53;;;3.22;;
14118;SDS011;7138;49.246;9.100;2023-07-09T08:29:06;6.90;;;3.45;;
14118;SDS011;7138;49.246;9.100;2023-07-09T08:31:33;8.00;;;3.55;;
14118;SDS011;7138;49.246;9.100;2023-07-09T08:33:59;7.38;;;3.10;;
14118;SDS011;7138;49.246;9.100;2023-07-09T08:36:25;8.38;;;3.28;;
14118;SDS011;7138;49.246;9.100;2023-07-09T08:38:52;6.68;;;3.33;;
14118;SDS011;7138;49.246;9.100;2023-07-09T08:41:20;6.57;;;3.42;;
14118;SDS011;7138;49.246;9.100;2023-07-09T08:44:04;7.93;;;3.33;;
14118;SDS011;7138;49.246;9.100;2023-07-09T08:47:00;7.07;;;3.40;;
14118;SDS011;7138;49.246;9.100;2023-07-09T08:49:38;7.43;;;3.42;;
14118;SDS011;7138;49.246;9.100;2023-07-09T08:52:17;7.00;;;3.20;;
14118;SDS011;7138;49.246;9.100;2023-07-09T08:54:51;5.28;;;2.85;;
14118;SDS011;7138;49.246;9.100;2023-07-09T08:57:22;6.75;;;2.83;;
14118;SDS011;7138;49.246;9.100;2023-07-09T08:59:53;7.90;;;3.47;;
14118;SDS011;7138;49.246;9.100;2023-07-09T09:02:31;7.18;;;3.20;;
14118;SDS011;7138;49.246;9.100;2023-07-09T09:05:04;9.00;;;3.00;;
14118;SDS011;7138;49.246;9.100;2023-07-09T09:07:34;6.93;;;2.88;;
14118;SDS011;7138;49.246;9.100;2023-07-09T09:10:07;6.25;;;2.70;;
14118;SDS011;7138;49.246;9.100;2023-07-09T09:12:41;5.10;;;2.53;;
14118;SDS011;7138;49.246;9.100;2023-07-09T09:15:24;6.95;;;2.55;;
14118;SDS011;7138;49.246;9.100;2023-07-09T09:17:58;5.70;;;2.72;;
14118;SDS011;7138;49.246;9.100;2023-07-09T09:20:42;6.28;;;2.97;;
14118;SDS011;7138;49.246;9.100;2023-07-09T09:23:12;4.45;;;2.60;;
14118;SDS011;7138;49.246;9.100;2023-07-09T09:25:41;7.50;;;3.20;;
14118;SDS011;7138;49.246;9.100;2023-07-09T09:28:14;5.88;;;2.55;;
14118;SDS011;7138;49.246;9.100;2023-07-09T09:30:40;5.80;;;2.80;;
14118;SDS011;7138;49.246;9.100;2023-07-09T09:33:08;5.10;;;2.90;;
14118;SDS011;7138;49.246;9.100;2023-07-09T09:35:37;6.13;;;2.80;;
14118;SDS011;7138;49.246;9.100;2023-07-09T09:38:09;6.75;;;2.75;;
14118;SDS011;7138;49.246;9.100;2023-07-09T09:40:37;5.53;;;2.80;;
14118;SDS011;7138;49.246;9.100;2023-07-09T09:43:07;6.60;;;3.08;;
14118;SDS011;7138;49.246;9.100;2023-07-09T09:45:39;5.65;;;2.55;;
14118;SDS011;7138;49.246;9.100;2023-07-09T09:48:13;6.30;;;2.40;;
14118;SDS011;7138;49.246;9.100;2023-07-09T09:50:42;6.78;;;2.50;;
14118;SDS011;7138;49.246;9.100;2023-07-09T09:53:12;4.20;;;2.53;;
14118;SDS011;7138;49.246;9.100;2023-07-09T09:55:46;4.97;;;2.42;;
14118;SDS011;7138;49.246;9.100;2023-07-09T09:58:14;5.57;;;2.42;;
14118;SDS011;7138;49.246;9.100;2023-07-09T10:00:46;8.23;;;2.83;;
14118;SDS011;7138;49.246;9.100;2023-07-09T10:03:17;4.97;;;2.47;;
14118;SDS011;7138;49.246;9.100;2023-07-09T10:05:44;6.10;;;2.80;;
14118;SDS011;7138;49.246;9.100;2023-07-09T10:08:17;6.18;;;2.80;;
14118;SDS011;7138;49.246;9.100;2023-07-09T10:11:11;7.97;;;3.50;;
14118;SDS011;7138;49.246;9.100;2023-07-09T10:13:46;6.03;;;2.58;;
14118;SDS011;7138;49.246;9.100;2023-07-09T10:16:18;5.60;;;2.47;;
14118;SDS011;7138;49.246;9.100;2023-07-09T10:18:57;5.57;;;2.70;;
14118;SDS011;7138;49.246;9.100;2023-07-09T10:21:34;4.75;;;2.38;;
14118;SDS011;7138;49.246;9.100;2023-07-09T10:24:12;7.80;;;2.78;;
14118;SDS011;7138;49.246;9.100;2023-07-09T10:26:56;6.25;;;2.60;;
14118;SDS011;7138;49.246;9.100;2023-07-09T10:29:41;5.32;;;2.33;;
14118;SDS011;7138;49.246;9.100;2023-07-09T10:32:32;4.68;;;2.40;;
14118;SDS011;7138;49.246;9.100;2023-07-09T10:35:16;4.82;;;2.50;;
14118;SDS011;7138;49.246;9.100;2023-07-09T10:37:54;5.18;;;2.08;;
14118;SDS011;7138;49.246;9.100;2023-07-09T10:40:36;5.22;;;2.42;;
14118;SDS011;7138;49.246;9.100;2023-07-09T10:43:10;5.13;;;2.60;;
14118;SDS011;7138;49.246;9.100;2023-07-09T10:45:44;6.35;;;2.45;;
14118;SDS011;7138;49.246;9.100;2023-07-09T10:48:16;4.88;;;2.63;;
14118;SDS011;7138;49.246;9.100;2023-07-09T10:50:57;4.47;;;2.72;;
14118;SDS011;7138;49.246;9.100;2023-07-09T10:53:28;6.72;;;2.58;;
14118;SDS011;7138;49.246;9.100;2023-07-09T10:56:04;5.07;;;2.42;;
14118;SDS011;7138;49.246;9.100;2023-07-09T10:58:38;6.47;;;2.28;;
14118;SDS011;7138;49.246;9.100;2023-07-09T11:01:15;5.35;;;2.30;;
14118;SDS011;7138;49.246;9.100;2023-07-09T11:03:48;5.53;;;2.55;;
14118;SDS011;7138;49.246;9.100;2023-07-09T11:06:20;4.57;;;2.60;;
14118;SDS011;7138;49.246;9.100;2023-07-09T11:08:55;4.93;;;2.47;;
14118;SDS011;7138;49.246;9.100;2023-07-09T11:11:25;5.93;;;2.60;;
14118;SDS011;7138;49.246;9.100;2023-07-09T11:14:00;7.97;;;2.90;;
14118;SDS011;7138;49.246;9.100;2023-07-09T11:16:34;5.53;;;2.60;;
14118;SDS011;7138;49.246;9.100;2023-07-09T11:19:06;6.97;;;2.65;;
14118;SDS011;7138;49.246;9.100;2023-07-09T11:21:45;6.95;;;2.58;;
14118;SDS011;7138;49.246;9.100;2023-07-09T11:24:29;4.65;;;2.50;;
14118;SDS011;7138;49.246;9.100;2023-07-09T11:26:59;7.03;;;2.67;;
14118;SDS011;7138;49.246;9.100;2023-07-09T11:29:26;5.70;;;2.55;;
14118;SDS011;7138;49.246;9.100;2023-07-09T11:31:54;7.40;;;2.50;;
14118;SDS011;7138;49.246;9.100;2023-07-09T11:34:26;5.70;;;2.50;;
14118;SDS011;7138;49.246;9.100;2023-07-09T11:36:57;7.68;;;2.35;;
14118;SDS011;7138;49.246;9.100;2023-07-09T11:39:28;5.85;;;2.40;;
14118;SDS011;7138;49.246;9.100;2023-07-09T11:41:57;6.45;;;2.60;;
14118;SDS011;7138;49.246;9.100;2023-07-09T11:44:24;6.85;;;2.60;;
14118;SDS011;7138;49.246;9.100;2023-07-09T11:46:59;4.68;;;2.40;;
14118;SDS011;7138;49.246;9.100;2023-07-09T11:49:45;6.32;;;2.20;;
14118;SDS011;7138;49.246;9.100;2023-07-09T11:52:20;4.82;;;2.45;;
14118;SDS011;7138;49.246;9.100;2023-07-09T11:54:53;8.30;;;3.05;;
14118;SDS011;7138;49.246;9.100;2023-07-09T11:57:19;6.75;;;2.55;;
14118;SDS011;7138;49.246;9.100;2023-07-09T11:59:45;7.72;;;2.50;;
14118;SDS011;7138;49.246;9.100;2023-07-09T12:02:13;5.97;;;2.88;;
14118;SDS011;7138;49.246;9.100;2023-07-09T12:04:43;6.00;;;3.20;;
14118;SDS011;7138;49.246;9.100;2023-07-09T12:07:12;5.45;;;2.60;;
14118;SDS011;7138;49.246;9.100;2023-07-09T12:09:43;6.03;;;2.25;;
14118;SDS011;7138;49.246;9.100;2023-07-09T12:12:19;6.35;;;2.50;;
14118;SDS011;7138;49.246;9.100;2023-07-09T12:14:48;5.50;;;2.78;;
14118;SDS011;7138;49.246;9.100;2023-07-09T12:17:14;6.63;;;3.33;;
14118;SDS011;7138;49.246;9.100;2023-07-09T12:19:40;6.57;;;3.08;;
14118;SDS011;7138;49.246;9.100;2023-07-09T12:22:09;5.55;;;2.30;;
14118;SDS011;7138;49.246;9.100;2023-07-09T12:24:44;5.38;;;2.38;;
14118;SDS011;7138;49.246;9.100;2023-07-09T12:27:20;5.18;;;2.50;;
14118;SDS011;7138;49.246;9.100;2023-07-09T12:29:50;4.95;;;2.75;;
14118;SDS011;7138;49.246;9.100;2023-07-09T12:32:19;4.90;;;2.38;;
14118;SDS011;7138;49.246;9.100;2023-07-09T12:34:49;5.47;;;2.65;;
14118;SDS011;7138;49.246;9.100;2023-07-09T12:37:17;4.40;;;2.40;;
14118;SDS011;7138;49.246;9.100;2023-07-09T12:39:49;6.07;;;2.67;;
14118;SDS011;7138;49.246;9.100;2023-07-09T12:42:17;7.22;;;2.80;;
14118;SDS011;7138;49.246;9.100;2023-07-09T12:44:53;4.78;;;2.50;;
14118;SDS011;7138;49.246;9.100;2023-07-09T12:47:19;5.55;;;2.80;;
14118;SDS011;7138;49.246;9.100;2023-07-09T12:49:49;5.55;;;2.70;;
14118;SDS011;7138;49.246;9.100;2023-07-09T12:52:18;6.43;;;2.60;;
14118;SDS011;7138;49.246;9.100;2023-07-09T12:54:57;5.78;;;2.95;;
14118;SDS011;7138;49.246;9.100;2023-07-09T12:59:53;6.72;;;2.85;;
14118;SDS011;7138;49.246;9.100;2023-07-09T13:02:21;5.60;;;2.60;;
14118;SDS011;7138;49.246;9.100;2023-07-09T13:04:50;7.60;;;2.75;;
14118;SDS011;7138;49.246;9.100;2023-07-09T13:07:29;5.35;;;2.65;;
14118;SDS011;7138;49.246;9.100;2023-07-09T13:10:14;6.45;;;2.67;;
14118;SDS011;7138;49.246;9.100;2023-07-09T13:12:44;7.25;;;2.65;;
14118;SDS011;7138;49.246;9.100;2023-07-09T13:15:24;6.78;;;2.90;;
14118;SDS011;7138;49.246;9.100;2023-07-09T13:17:57;4.63;;;2.58;;
14118;SDS011;7138;49.246;9.100;2023-07-09T13:20:25;7.57;;;2.90;;
14118;SDS011;7138;49.246;9.100;2023-07-09T13:22:52;7.25;;;2.70;;
14118;SDS011;7138;49.246;9.100;2023-07-09T13:25:19;6.07;;;2.63;;
14118;SDS011;7138;49.246;9.100;2023-07-09T13:27:45;7.68;;;3.00;;
14118;SDS011;7138;49.246;9.100;2023-07-09T13:30:11;5.70;;;2.70;;
14118;SDS011;7138;49.246;9.100;2023-07-09T13:32:37;5.28;;;2.30;;
14118;SDS011;7138;49.246;9.100;2023-07-09T13:35:05;7.25;;;2.85;;
14118;SDS011;7138;49.246;9.100;2023-07-09T13:37:40;7.60;;;2.58;;
14118;SDS011;7138;49.246;9.100;2023-07-09T13:40:07;6.10;;;2.97;;
14118;SDS011;7138;49.246;9.100;2023-07-09T13:42:37;6.95;;;2.80;;
14118;SDS011;7138;49.246;9.100;2023-07-09T13:45:04;7.88;;;3.08;;
14118;SDS011;7138;49.246;9.100;2023-07-09T13:47:33;6.97;;;2.60;;
14118;SDS011;7138;49.246;9.100;2023-07-09T13:50:00;6.97;;;2.90;;
14118;SDS011;7138;49.246;9.100;2023-07-09T13:52:26;6.28;;;2.60;;
14118;SDS011;7138;49.246;9.100;2023-07-09T13:54:52;5.47;;;2.88;;
14118;SDS011;7138;49.246;9.100;2023-07-09T13:57:20;6.72;;;2.90;;
14118;SDS011;7138;49.246;9.100;2023-07-09T13:59:48;6.25;;;3.10;;
14118;SDS011;7138;49.246;9.100;2023-07-09T14:02:17;5.95;;;2.60;;
14118;SDS011;7138;49.246;9.100;2023-07-09T14:04:49;5.65;;;2.78;;
14118;SDS011;7138;49.246;9.100;2023-07-09T14:07:20;6.72;;;2.50;;
14118;SDS011;7138;49.246;9.100;2023-07-09T14:09:52;6.65;;;2.70;;
14118;SDS011;7138;49.246;9.100;2023-07-09T14:12:18;8.07;;;2.78;;
14118;SDS011;7138;49.246;9.100;2023-07-09T14:14:44;5.93;;;2.47;;
14118;SDS011;7138;49.246;9.100;2023-07-09T14:17:12;6.60;;;3.08;;
14118;SDS011;7138;49.246;9.100;2023-07-09T14:19:38;6.10;;;2.78;;
14118;SDS011;7138;49.246;9.100;2023-07-09T14:22:06;6.00;;;2.80;;
14118;SDS011;7138;49.246;9.100;2023-07-09T14:24:56;6.50;;;2.47;;
14118;SDS011;7138;49.246;9.100;2023-07-09T14:27:24;8.18;;;2.72;;
14118;SDS011;7138;49.246;9.100;2023-07-09T14:29:49;8.35;;;3.40;;
14118;SDS011;7138;49.246;9.100;2023-07-09T14:32:28;6.95;;;2.70;;
14118;SDS011;7138;49.246;9.100;2023-07-09T14:34:59;5.45;;;2.70;;
14118;SDS011;7138;49.246;9.100;2023-07-09T14:37:35;5.97;;;2.70;;
14118;SDS011;7138;49.246;9.100;2023-07-09T14:40:01;8.07;;;2.45;;
14118;SDS011;7138;49.246;9.100;2023-07-09T14:42:30;7.22;;;2.70;;
14118;SDS011;7138;49.246;9.100;2023-07-09T14:44:56;6.72;;;2.70;;
14118;SDS011;7138;49.246;9.100;2023-07-09T14:47:21;6.70;;;2.70;;
14118;SDS011;7138;49.246;9.100;2023-07-09T14:49:49;8.55;;;3.00;;
14118;SDS011;7138;49.246;9.100;2023-07-09T14:52:16;6.47;;;2.83;;
14118;SDS011;7138;49.246;9.100;2023-07-09T14:54:46;6.82;;;2.30;;
14118;SDS011;7138;49.246;9.100;2023-07-09T14:57:16;6.30;;;2.40;;
14118;SDS011;7138;49.246;9.100;2023-07-09T14:59:46;6.10;;;2.50;;
14118;SDS011;7138;49.246;9.100;2023-07-09T15:02:21;5.50;;;2.72;;
14118;SDS011;7138;49.246;9.100;2023-07-09T15:05:04;5.28;;;2.70;;
14118;SDS011;7138;49.246;9.100;2023-07-09T15:07:37;5.22;;;2.70;;
14118;SDS011;7138;49.246;9.100;2023-07-09T15:10:03;7.85;;;2.90;;
14118;SDS011;7138;49.246;9.100;2023-07-09T15:12:33;7.75;;;2.88;;
14118;SDS011;7138;49.246;9.100;2023-07-09T15:15:01;6.93;;;2.83;;
14118;SDS011;7138;49.246;9.100;2023-07-09T15:17:53;5.57;;;2.63;;